Time;durP1;ratioP1;P1;durP2;ratioP2;P2;SDS_P1;SDS_P2;PMS_P1;PMS_P2;Temp;Humidity;BMP_temperature;BMP_pressure;BME280_temperature;BME280_humidity;BME280_pressure;Samples;Min_cycle;Max_cycle;Signal;HPM_P1;HPM_P2
2022/07/26 00:00:46;;;;;;;10.73;2.90;;;;;;;21.88;56.49;101274.75;5128672;28;21483;-75
2022/07/26 00:03:19;;;;;;;9.13;2.50;;;;;;;21.85;56.28;101280.56;5128193;28;20458;-76
2022/07/26 00:05:53;;;;;;;13.27;3.10;;;;;;;21.82;56.28;101281.00;5131375;28;20438;-75
2022/07/26 00:08:25;;;;;;;12.05;3.25;;;;;;;21.71;56.20;101273.56;5128627;28;20416;-76
2022/07/26 00:10:58;;;;;;;9.52;2.75;;;;;;;21.76;56.36;101292.59;5126501;28;20495;-76
2022/07/26 00:13:30;;;;;;;7.40;2.40;;;;;;;21.73;56.19;101293.00;5127111;28;20424;-76
2022/07/26 00:16:03;;;;;;;7.40;2.50;;;;;;;21.70;56.12;101293.44;5126075;28;20418;-76
2022/07/26 00:18:36;;;;;;;6.53;2.38;;;;;;;21.70;56.13;101301.50;5129475;28;20499;-76
2022/07/26 00:21:09;;;;;;;4.90;1.95;;;;;;;21.56;56.03;101281.91;5130038;28;20412;-76
2022/07/26 00:23:42;;;;;;;7.70;1.92;;;;;;;21.65;56.06;101294.09;5138505;28;20440;-76
2022/07/26 00:26:14;;;;;;;5.95;2.25;;;;;;;21.72;56.10;101302.94;5129395;28;20432;-76
2022/07/26 00:28:46;;;;;;;6.40;2.00;;;;;;;21.72;55.94;101308.31;5129456;28;20424;-76
2022/07/26 00:31:18;;;;;;;6.85;2.10;;;;;;;21.72;55.95;101312.88;5131031;28;21045;-76
2022/07/26 00:33:51;;;;;;;6.10;2.17;;;;;;;21.73;55.86;101314.53;5127118;28;20530;-76
2022/07/26 00:36:26;;;;;;;6.13;2.00;;;;;;;21.74;55.80;101321.53;5133313;28;20403;-76
2022/07/26 00:38:58;;;;;;;9.95;2.75;;;;;;;21.74;55.63;101324.22;5131456;28;20464;-75
2022/07/26 00:41:30;;;;;;;9.43;2.17;;;;;;;21.74;55.69;101318.84;5135943;28;20450;-76
2022/07/26 00:44:03;;;;;;;4.13;1.77;;;;;;;21.70;55.64;101314.94;5128706;28;20438;-76
2022/07/26 00:46:35;;;;;;;13.45;2.25;;;;;;;21.69;55.63;101319.50;5127728;28;20434;-76
2022/07/26 00:49:07;;;;;;;4.88;1.70;;;;;;;21.69;55.68;101316.00;5129014;28;20432;-76
2022/07/26 00:51:41;;;;;;;9.23;2.20;;;;;;;21.69;55.55;101310.63;5134515;28;20412;-76
2022/07/26 00:54:13;;;;;;;3.83;1.73;;;;;;;21.68;55.42;101317.88;5128315;28;20447;-78
2022/07/26 00:56:46;;;;;;;5.22;1.75;;;;;;;21.68;55.45;101327.75;5127975;28;20443;-76
2022/07/26 00:59:18;;;;;;;7.15;1.80;;;;;;;21.69;55.43;101324.06;5127547;28;20414;-76
2022/07/26 01:01:51;;;;;;;3.67;1.58;;;;;;;21.64;55.49;101322.81;5126507;28;20432;-76
2022/07/26 01:04:23;;;;;;;8.05;1.92;;;;;;;21.68;55.41;101327.75;5130216;28;22241;-76
2022/07/26 01:06:57;;;;;;;9.40;2.05;;;;;;;21.66;55.36;101324.47;5128024;28;20412;-77
2022/07/26 01:09:30;;;;;;;6.53;1.95;;;;;;;21.64;55.26;101320.13;5130424;28;20422;-76
2022/07/26 01:12:02;;;;;;;6.07;2.03;;;;;;;21.64;55.37;101325.50;5127824;28;20903;-76
2022/07/26 01:14:35;;;;;;;7.20;2.10;;;;;;;21.61;55.34;101330.47;5132946;28;20424;-76
2022/07/26 01:17:07;;;;;;;8.48;2.05;;;;;;;21.59;55.33;101335.25;5126558;28;20423;-76
2022/07/26 01:19:41;;;;;;;10.40;2.72;;;;;;;21.57;55.52;101332.75;5130186;28;20511;-77
2022/07/26 01:22:14;;;;;;;7.75;2.33;;;;;;;21.57;55.46;101332.75;5135284;28;20900;-77
2022/07/26 01:24:46;;;;;;;13.50;2.33;;;;;;;21.57;55.49;101330.06;5126034;28;20505;-77
2022/07/26 01:27:19;;;;;;;8.57;2.13;;;;;;;21.48;55.43;101327.81;5125546;28;20434;-77
2022/07/26 01:29:51;;;;;;;7.75;2.17;;;;;;;21.53;55.51;101331.53;5124611;28;20434;-78
2022/07/26 01:32:23;;;;;;;6.38;1.98;;;;;;;21.50;55.48;101331.97;5126962;28;21044;-76
2022/07/26 01:34:56;;;;;;;7.65;1.88;;;;;;;21.37;55.44;101324.75;5127264;28;20422;-75
2022/07/26 01:37:29;;;;;;;9.07;2.47;;;;;;;21.41;55.58;101335.91;5118327;28;20431;-76
2022/07/26 01:40:02;;;;;;;7.22;2.03;;;;;;;21.31;55.51;101322.88;5122020;28;20424;-76
2022/07/26 01:42:35;;;;;;;5.93;2.00;;;;;;;21.15;55.83;101310.69;5126634;28;20424;-76
2022/07/26 01:45:09;;;;;;;7.90;2.60;;;;;;;21.23;55.63;101324.94;5134662;28;20424;-76
2022/07/26 01:47:41;;;;;;;11.40;2.15;;;;;;;21.23;55.68;101330.31;5126018;28;20795;-75
2022/07/26 01:50:14;;;;;;;10.90;2.13;;;;;;;21.24;55.80;101342.69;5127595;28;20428;-76
2022/07/26 01:52:47;;;;;;;8.32;2.47;;;;;;;21.21;55.87;101349.31;5127436;28;20430;-77
2022/07/26 01:55:20;;;;;;;9.67;2.57;;;;;;;21.16;56.00;101341.88;5126747;28;20420;-77
2022/07/26 01:57:52;;;;;;;9.65;2.03;;;;;;;21.12;56.01;101346.03;5126817;28;20430;-76
2022/07/26 02:00:24;;;;;;;10.48;2.17;;;;;;;21.10;56.06;101345.41;5127266;28;21026;-77
2022/07/26 02:02:57;;;;;;;8.30;2.05;;;;;;;21.07;56.21;101348.50;5128809;28;20904;-76
2022/07/26 02:05:29;;;;;;;9.23;2.63;;;;;;;21.05;56.24;101361.31;5116401;28;20768;-76
2022/07/26 02:08:03;;;;;;;8.80;2.50;;;;;;;21.02;56.40;101353.66;5125981;28;20589;-76
2022/07/26 02:13:25;;;;;;;8.38;2.33;;;;;;;20.97;56.47;101361.53;5126320;28;20417;-77
2022/07/26 02:15:58;;;;;;;10.88;2.33;;;;;;;20.72;56.44;101323.72;5126992;28;20424;-77
2022/07/26 02:18:31;;;;;;;10.43;2.60;;;;;;;20.94;56.59;101364.63;5133748;28;20872;-76
2022/07/26 02:21:05;;;;;;;7.07;1.88;;;;;;;20.93;56.71;101362.94;5126985;28;20404;-76
2022/07/26 02:23:38;;;;;;;7.05;1.77;;;;;;;20.91;56.96;101359.66;5125843;28;20434;-76
2022/07/26 02:26:11;;;;;;;7.38;2.20;;;;;;;20.88;56.87;101365.44;5126321;28;20425;-77
2022/07/26 02:28:43;;;;;;;7.50;2.17;;;;;;;20.82;56.85;101359.03;5129430;28;20466;-77
2022/07/26 02:31:15;;;;;;;8.02;2.08;;;;;;;20.79;57.13;101358.63;5132021;28;20893;-76
2022/07/26 02:33:47;;;;;;;10.73;2.53;;;;;;;20.76;57.15;101354.47;5129948;28;20431;-76
2022/07/26 02:36:20;;;;;;;8.25;2.80;;;;;;;20.73;57.19;101354.88;5129661;28;20442;-76
2022/07/26 02:38:53;;;;;;;7.82;2.20;;;;;;;20.71;57.35;101357.75;5128394;28;20431;-76
2022/07/26 02:41:26;;;;;;;7.93;2.25;;;;;;;20.68;57.38;101360.84;5129448;28;20412;-76
2022/07/26 02:43:58;;;;;;;9.32;2.35;;;;;;;20.65;57.42;101349.69;5128003;28;20449;-76
2022/07/26 02:46:30;;;;;;;10.20;2.58;;;;;;;20.63;57.49;101357.97;5129154;28;20432;-76
2022/07/26 02:49:03;;;;;;;7.25;2.10;;;;;;;20.61;57.62;101348.47;5130122;28;20420;-76
2022/07/26 02:51:35;;;;;;;9.70;2.22;;;;;;;20.59;57.73;101363.94;5128769;28;20412;-75
2022/07/26 02:54:09;;;;;;;7.55;2.33;;;;;;;20.58;57.81;101363.09;5128234;28;20934;-76
2022/07/26 02:56:41;;;;;;;6.50;2.35;;;;;;;20.45;57.86;101344.28;5129648;28;20428;-76
2022/07/26 02:59:13;;;;;;;8.95;2.33;;;;;;;20.54;57.91;101364.56;5130211;28;20505;-76
2022/07/26 03:01:46;;;;;;;7.93;2.75;;;;;;;20.56;57.98;101373.19;5128095;28;20436;-76
2022/07/26 03:04:18;;;;;;;9.93;2.35;;;;;;;20.57;58.03;101369.50;5133100;28;20513;-76
2022/07/26 03:06:50;;;;;;;6.40;2.13;;;;;;;20.57;57.97;101363.31;5131146;28;20450;-77
2022/07/26 03:09:24;;;;;;;6.77;2.20;;;;;;;20.58;58.12;101365.78;5129414;28;20419;-77
2022/07/26 03:11:56;;;;;;;7.38;2.30;;;;;;;20.60;58.21;101374.47;5128258;28;20497;-76
2022/07/26 03:14:29;;;;;;;6.45;2.25;;;;;;;20.61;58.23;101376.13;5134933;28;20443;-76
2022/07/26 03:17:01;;;;;;;8.38;2.80;;;;;;;20.62;58.33;101383.13;5142002;28;20422;-76
2022/07/26 03:19:33;;;;;;;9.65;2.80;;;;;;;20.64;58.31;101386.44;5130290;28;20416;-76
2022/07/26 03:22:05;;;;;;;8.52;2.10;;;;;;;20.64;58.36;101383.75;5128613;28;20891;-76
2022/07/26 03:24:39;;;;;;;8.00;2.40;;;;;;;20.65;58.53;101388.09;5127737;28;21078;-76
2022/07/26 03:27:11;;;;;;;8.00;3.25;;;;;;;20.64;58.51;101393.69;5136251;28;20430;-76
2022/07/26 03:29:44;;;;;;;6.38;3.17;;;;;;;20.42;58.63;101366.13;5128918;28;20420;-76
2022/07/26 03:32:16;;;;;;;10.13;2.53;;;;;;;20.60;58.68;101382.53;5130079;28;20424;-76
2022/07/26 03:34:48;;;;;;;10.10;2.93;;;;;;;20.58;58.88;101392.63;5127716;28;20492;-77
2022/07/26 03:37:21;;;;;;;10.93;3.50;;;;;;;20.58;58.91;101402.53;5128251;28;20488;-76
2022/07/26 03:39:55;;;;;;;10.82;2.80;;;;;;;20.54;59.01;101412.03;5127183;28;20405;-76
2022/07/26 03:42:28;;;;;;;8.87;2.77;;;;;;;20.52;59.16;101412.22;5133333;28;20420;-76
2022/07/26 03:45:00;;;;;;;10.48;2.63;;;;;;;20.51;59.28;101407.84;5127156;28;20443;-76
2022/07/26 03:47:32;;;;;;;10.55;2.65;;;;;;;20.50;59.26;101416.91;5129155;28;20420;-76
2022/07/26 03:50:05;;;;;;;7.18;2.47;;;;;;;20.51;59.41;101413.22;5128566;28;20520;-76
2022/07/26 03:52:38;;;;;;;12.18;2.72;;;;;;;20.49;59.57;101418.78;5127917;28;20558;-75
2022/07/26 03:58:01;;;;;;;12.18;2.60;;;;;;;20.41;59.76;101423.50;5128279;28;20456;-77
2022/07/26 04:00:34;;;;;;;7.18;2.42;;;;;;;20.37;59.68;101416.88;5127492;28;20515;-77
2022/07/26 04:03:06;;;;;;;10.55;2.47;;;;;;;20.38;59.70;101437.31;5127871;28;20841;-77
2022/07/26 04:05:38;;;;;;;9.23;1.77;;;;;;;20.36;59.64;101431.31;5132574;28;20428;-76
2022/07/26 04:08:10;;;;;;;7.80;2.13;;;;;;;20.35;59.62;101430.50;5100930;28;20909;-76
2022/07/26 04:10:47;;;;;;;7.73;1.90;;;;;;;20.33;59.59;101431.72;5132351;28;20439;-76
2022/07/26 04:13:19;;;;;;;7.55;2.40;;;;;;;20.26;59.68;101432.53;5127061;28;20436;-76
2022/07/26 04:15:52;;;;;;;9.35;2.03;;;;;;;20.35;59.74;101432.38;5127766;28;20451;-76
2022/07/26 04:18:24;;;;;;;10.40;2.28;;;;;;;20.37;59.71;101430.28;5131403;28;20967;-77
2022/07/26 04:20:56;;;;;;;8.88;1.90;;;;;;;20.37;59.42;101438.34;5127167;28;20912;-77
2022/07/26 04:23:29;;;;;;;7.55;1.98;;;;;;;20.36;59.67;101431.31;5131231;28;20434;-77
2022/07/26 04:26:03;;;;;;;9.55;1.70;;;;;;;20.35;59.73;101440.41;5131972;28;20432;-77
2022/07/26 04:28:38;;;;;;;9.18;2.28;;;;;;;20.31;59.83;101442.63;5129954;28;20893;-77
2022/07/26 04:31:10;;;;;;;6.03;1.90;;;;;;;20.32;59.71;101436.25;5132912;28;20432;-77
2022/07/26 04:33:42;;;;;;;7.00;2.00;;;;;;;20.38;59.57;101450.75;5129174;28;20431;-78
2022/07/26 04:36:15;;;;;;;9.77;2.33;;;;;;;20.41;59.57;101455.72;5130493;28;20428;-78
2022/07/26 04:38:47;;;;;;;7.47;2.17;;;;;;;20.46;59.57;101456.75;5130450;28;20416;-78
2022/07/26 04:41:21;;;;;;;8.07;1.98;;;;;;;20.50;59.58;101459.84;5128580;28;20446;-78
2022/07/26 04:43:53;;;;;;;11.60;2.45;;;;;;;20.57;59.32;101460.75;5128903;28;20436;-77
2022/07/26 04:46:25;;;;;;;10.88;2.45;;;;;;;20.56;59.55;101469.81;5132367;28;20804;-78
2022/07/26 04:48:57;;;;;;;8.07;1.70;;;;;;;20.53;59.59;101475.56;5127517;28;20420;-77
2022/07/26 04:51:30;;;;;;;8.27;1.88;;;;;;;20.47;59.70;101465.59;5133502;28;21063;-78
2022/07/26 04:54:02;;;;;;;10.23;2.55;;;;;;;20.29;59.77;101458.13;5149598;28;20420;-77
2022/07/26 04:56:36;;;;;;;9.15;1.63;;;;;;;20.33;59.58;101459.38;5135583;28;20414;-77
2022/07/26 04:59:08;;;;;;;9.32;1.80;;;;;;;20.40;59.63;101475.50;5148142;28;20507;-77
2022/07/26 05:01:40;;;;;;;4.75;1.27;;;;;;;20.41;59.51;101488.72;5144934;28;20440;-77
2022/07/26 05:04:12;;;;;;;8.65;1.90;;;;;;;20.38;59.30;101477.56;5149531;28;20395;-78
2022/07/26 05:06:45;;;;;;;7.13;1.57;;;;;;;20.43;59.22;101485.81;5148535;28;20851;-77
2022/07/26 05:09:17;;;;;;;4.75;1.35;;;;;;;20.42;59.28;101481.50;5142668;28;20415;-73
2022/07/26 05:11:51;;;;;;;8.30;2.05;;;;;;;20.43;59.21;101497.38;5139834;28;20415;-74
2022/07/26 05:14:23;;;;;;;5.90;1.55;;;;;;;20.42;58.91;101493.06;5134765;28;20423;-73
2022/07/26 05:16:55;;;;;;;8.45;1.98;;;;;;;20.50;58.91;101502.78;5145797;28;20422;-74
2022/07/26 05:19:27;;;;;;;9.70;2.10;;;;;;;20.56;58.67;101511.91;5148990;28;20415;-76
2022/07/26 05:22:00;;;;;;;9.45;2.15;;;;;;;20.57;58.42;101509.06;5148412;28;20437;-78
2022/07/26 05:24:32;;;;;;;9.70;2.30;;;;;;;20.62;58.41;101514.63;5149161;28;20410;-76
2022/07/26 05:27:06;;;;;;;10.05;2.63;;;;;;;20.63;58.38;101521.69;5119886;28;20509;-75
2022/07/26 05:29:38;;;;;;;5.97;2.42;;;;;;;20.62;58.30;101520.00;5126254;28;20419;-74
2022/07/26 05:32:10;;;;;;;11.60;2.35;;;;;;;20.58;58.34;101526.81;5126941;28;20787;-74
2022/07/26 05:34:43;;;;;;;11.73;2.50;;;;;;;20.58;58.08;101525.97;5130490;28;20416;-75
2022/07/26 05:37:15;;;;;;;10.23;1.92;;;;;;;20.53;58.11;101531.09;5141414;28;20787;-75
2022/07/26 05:39:47;;;;;;;7.25;2.20;;;;;;;20.50;58.09;101529.59;5129573;28;20423;-75
2022/07/26 05:42:21;;;;;;;7.03;1.50;;;;;;;20.48;58.00;101534.38;5130234;28;20815;-76
2022/07/26 05:44:53;;;;;;;9.60;1.73;;;;;;;20.36;58.01;101528.72;5149144;28;20430;-76
2022/07/26 05:47:25;;;;;;;9.20;1.67;;;;;;;20.37;57.98;101537.59;5148430;28;20783;-76
2022/07/26 05:49:58;;;;;;;8.52;1.42;;;;;;;20.35;58.04;101545.84;5134208;28;20422;-77
2022/07/26 05:52:30;;;;;;;6.15;1.63;;;;;;;20.41;57.61;101549.59;5143840;28;20429;-77
2022/07/26 05:55:02;;;;;;;7.15;1.60;;;;;;;20.44;57.63;101551.88;5147884;28;20432;-77
2022/07/26 05:57:36;;;;;;;6.22;1.75;;;;;;;20.44;57.41;101551.88;5145772;28;20926;-76
2022/07/26 06:00:10;;;;;;;3.47;1.35;;;;;;;20.47;57.29;101557.69;5148948;28;20812;-77
2022/07/26 06:02:42;;;;;;;5.63;1.37;;;;;;;20.50;57.35;101561.81;5152769;28;20502;-77
2022/07/26 06:05:15;;;;;;;5.97;1.50;;;;;;;20.58;57.22;101563.56;5142236;28;21079;-76
2022/07/26 06:07:47;;;;;;;5.35;1.33;;;;;;;20.68;56.93;101569.38;5140104;28;20825;-76
2022/07/26 06:10:19;;;;;;;5.03;1.20;;;;;;;20.68;56.95;101575.56;5152464;28;20779;-77
2022/07/26 06:12:53;;;;;;;4.78;1.20;;;;;;;20.70;56.78;101578.06;5152342;28;20525;-76
2022/07/26 06:15:25;;;;;;;4.88;1.17;;;;;;;20.63;56.69;101564.63;5148922;28;20483;-77
2022/07/26 06:17:57;;;;;;;3.25;1.02;;;;;;;20.80;56.45;101588.44;5146263;28;20422;-76
2022/07/26 06:20:30;;;;;;;5.87;1.20;;;;;;;20.79;56.27;101571.50;5151642;28;20414;-78
2022/07/26 06:23:02;;;;;;;2.97;0.95;;;;;;;20.94;56.15;101584.81;5151744;28;20444;-78
2022/07/26 06:25:34;;;;;;;5.13;1.20;;;;;;;20.97;55.98;101589.78;5150059;28;20411;-76
2022/07/26 06:28:10;;;;;;;4.35;1.00;;;;;;;21.11;56.07;101594.16;5151902;28;20437;-77
2022/07/26 06:30:44;;;;;;;7.50;1.63;;;;;;;21.24;55.57;101598.72;5152106;28;20479;-77
2022/07/26 06:33:17;;;;;;;8.85;1.30;;;;;;;21.30;55.43;101610.53;5152391;28;20486;-77
2022/07/26 06:35:49;;;;;;;7.78;1.10;;;;;;;21.39;55.29;101598.59;5151885;28;20581;-77
2022/07/26 06:38:22;;;;;;;2.97;0.88;;;;;;;21.59;55.12;101610.25;5151909;28;20891;-77
2022/07/26 06:40:54;;;;;;;3.10;0.90;;;;;;;21.93;54.81;101621.88;5151912;28;21984;-77
2022/07/26 06:43:28;;;;;;;7.57;1.48;;;;;;;22.25;54.38;101625.63;5144209;28;20410;-77
2022/07/26 06:46:00;;;;;;;4.47;1.23;;;;;;;22.38;54.13;101622.09;5151530;28;20895;-78
2022/07/26 06:48:34;;;;;;;23.98;3.17;;;;;;;22.38;53.84;101629.34;5151503;28;20415;-77
2022/07/26 06:51:08;;;;;;;4.72;1.30;;;;;;;22.34;53.76;101637.00;5130483;28;20466;-76
2022/07/26 06:53:41;;;;;;;6.43;1.83;;;;;;;22.17;53.71;101638.44;5132355;28;20462;-77
2022/07/26 06:56:13;;;;;;;3.25;1.48;;;;;;;21.99;53.69;101647.09;5128580;28;20416;-77
2022/07/26 06:58:47;;;;;;;5.53;1.17;;;;;;;21.78;53.66;101654.31;5131033;28;20423;-77
2022/07/26 07:01:20;;;;;;;6.15;2.08;;;;;;;21.59;53.74;101653.25;5129047;28;20842;-77
2022/07/26 07:03:52;;;;;;;8.55;2.28;;;;;;;21.47;53.80;101665.63;5128360;28;20999;-76
2022/07/26 07:06:24;;;;;;;9.18;1.90;;;;;;;21.45;53.85;101651.53;5133331;28;23052;-77
2022/07/26 07:08:56;;;;;;;8.43;2.10;;;;;;;21.42;53.81;101654.63;5132573;28;20437;-77
2022/07/26 07:11:29;;;;;;;7.85;2.00;;;;;;;21.32;53.96;101654.16;5128301;28;20537;-77
2022/07/26 07:14:02;;;;;;;8.30;2.28;;;;;;;21.29;54.19;101651.88;5138191;28;20433;-77
2022/07/26 07:16:35;;;;;;;7.13;1.40;;;;;;;21.36;54.22;101647.38;5126217;28;20471;-76
2022/07/26 07:19:07;;;;;;;7.45;1.45;;;;;;;21.45;54.20;101651.53;5129255;28;20510;-76
2022/07/26 07:21:39;;;;;;;8.38;2.15;;;;;;;21.56;54.09;101658.22;5130635;28;20428;-76
2022/07/26 07:24:12;;;;;;;13.17;1.43;;;;;;;21.71;53.95;101653.50;5128903;28;20984;-77
2022/07/26 07:26:44;;;;;;;4.85;1.40;;;;;;;21.68;53.69;101645.84;5128348;28;20972;-77
2022/07/26 07:29:19;;;;;;;6.53;1.70;;;;;;;21.83;53.88;101664.44;5127447;28;20473;-76
2022/07/26 07:31:51;;;;;;;9.52;2.95;;;;;;;21.95;53.84;101670.88;5129084;28;20919;-77
2022/07/26 07:34:24;;;;;;;4.72;1.08;;;;;;;22.02;53.54;101660.13;5129919;28;20477;-79
2022/07/26 07:36:56;;;;;;;4.70;1.35;;;;;;;22.20;53.10;101675.69;5130723;28;20420;-78
2022/07/26 07:39:29;;;;;;;5.83;1.40;;;;;;;22.54;52.68;101670.09;5128270;28;20435;-76
2022/07/26 07:42:01;;;;;;;3.92;1.05;;;;;;;22.73;52.23;101675.66;5130421;28;20765;-77
2022/07/26 07:44:35;;;;;;;4.97;1.70;;;;;;;22.69;51.88;101677.13;5126568;28;20420;-78
2022/07/26 07:47:07;;;;;;;10.48;1.40;;;;;;;22.52;52.15;101684.81;5125000;28;20426;-77
2022/07/26 07:49:39;;;;;;;9.38;1.65;;;;;;;22.40;52.12;101692.69;5127316;28;20916;-77
2022/07/26 07:52:12;;;;;;;8.27;1.50;;;;;;;22.32;52.01;101690.19;5136809;28;20442;-77
2022/07/26 07:54:44;;;;;;;4.68;1.10;;;;;;;22.13;51.96;101685.59;5126593;28;20436;-76
2022/07/26 07:57:16;;;;;;;4.32;1.10;;;;;;;22.20;51.75;101697.22;5128831;28;20907;-76
2022/07/26 07:59:50;;;;;;;4.28;0.90;;;;;;;22.27;51.60;101698.91;5126801;28;20951;-76
2022/07/26 08:02:22;;;;;;;6.00;1.27;;;;;;;22.61;51.41;101697.03;5130182;28;20466;-77
2022/07/26 08:04:54;;;;;;;3.35;1.10;;;;;;;23.00;50.65;101696.16;5127073;28;20422;-76
2022/07/26 08:07:27;;;;;;;4.25;0.85;;;;;;;23.39;50.07;101696.22;5128580;28;20511;-75
2022/07/26 08:09:59;;;;;;;7.43;1.20;;;;;;;23.99;49.72;101701.31;5127767;28;20419;-75
2022/07/26 08:12:31;;;;;;;2.90;0.90;;;;;;;24.93;48.87;101699.50;5129737;28;20428;-76
2022/07/26 08:15:07;;;;;;;5.80;0.82;;;;;;;25.49;48.12;101693.06;5130337;28;20411;-78
2022/07/26 08:17:39;;;;;;;2.92;0.73;;;;;;;25.85;47.57;101696.72;5127155;28;20481;-77
2022/07/26 08:20:13;;;;;;;2.92;0.70;;;;;;;26.17;47.11;101691.88;5127173;28;20428;-77
2022/07/26 08:22:45;;;;;;;7.32;1.48;;;;;;;26.38;46.55;101693.19;5128178;28;20870;-78
2022/07/26 08:25:18;;;;;;;2.43;0.97;;;;;;;26.49;46.01;101695.09;5127984;28;20459;-77
2022/07/26 08:27:50;;;;;;;2.47;0.90;;;;;;;26.70;45.84;101690.13;5138412;28;20429;-80
2022/07/26 08:30:24;;;;;;;3.20;0.60;;;;;;;27.04;45.27;101696.59;5146554;28;20416;-80
2022/07/26 08:32:56;;;;;;;2.45;0.77;;;;;;;27.31;44.79;101697.72;5149561;28;20891;-79
2022/07/26 08:35:29;;;;;;;3.10;1.05;;;;;;;27.30;44.44;101700.69;5136801;28;20497;-80
2022/07/26 08:38:01;;;;;;;2.53;0.75;;;;;;;27.22;44.28;101714.63;5149210;28;20418;-79
2022/07/26 08:40:34;;;;;;;4.10;1.00;;;;;;;27.22;44.14;101714.63;5149067;28;20395;-79
2022/07/26 08:43:07;;;;;;;2.17;0.80;;;;;;;27.19;43.82;101717.81;5143319;28;20408;-80
2022/07/26 08:45:41;;;;;;;3.85;0.98;;;;;;;26.98;43.81;101730.09;5133623;28;20442;-78
2022/07/26 08:48:13;;;;;;;6.23;1.47;;;;;;;26.54;44.08;101737.72;5148910;28;20506;-79
2022/07/26 08:50:46;;;;;;;4.40;1.33;;;;;;;26.10;44.43;101750.69;5148450;28;20544;-79
2022/07/26 08:53:19;;;;;;;6.77;1.40;;;;;;;25.61;44.92;101758.84;5149651;28;20915;-79
2022/07/26 08:55:57;;;;;;;7.28;1.65;;;;;;;25.14;45.33;101763.13;5146962;28;20437;-80
2022/07/26 08:58:31;;;;;;;9.50;1.77;;;;;;;24.83;45.64;101768.38;5148496;28;20871;-79
2022/07/26 09:01:10;;;;;;;5.93;1.30;;;;;;;24.59;45.79;101774.66;5145228;28;20416;-80
2022/07/26 09:03:44;;;;;;;4.28;1.42;;;;;;;24.28;46.09;101765.50;5140902;28;20422;-78
2022/07/26 09:06:18;;;;;;;9.68;2.17;;;;;;;24.03;46.28;101772.69;5145688;28;20434;-80
2022/07/26 09:08:53;;;;;;;9.68;2.13;;;;;;;23.80;46.57;101773.25;5131597;28;20418;-79
2022/07/26 09:11:31;;;;;;;5.57;1.27;;;;;;;23.70;46.48;101779.09;5126806;28;20473;-79
2022/07/26 09:14:05;;;;;;;8.07;1.85;;;;;;;23.67;46.60;101769.53;5144511;28;20454;-77
2022/07/26 09:16:39;;;;;;;4.07;1.20;;;;;;;23.52;46.79;101787.00;5145079;28;20420;-79
2022/07/26 09:19:20;;;;;;;7.65;1.83;;;;;;;23.56;46.84;101783.66;5146999;28;20414;-79
2022/07/26 09:21:56;;;;;;;9.32;1.60;;;;;;;23.71;46.51;101780.75;5148094;28;20426;-80
2022/07/26 09:24:34;;;;;;;8.60;1.83;;;;;;;23.80;46.35;101784.03;5147929;28;20429;-79
2022/07/26 09:27:09;;;;;;;5.50;1.33;;;;;;;23.73;46.42;101786.75;5145285;28;20440;-80
2022/07/26 09:29:49;;;;;;;7.75;1.73;;;;;;;23.51;46.65;101785.38;5144875;28;20948;-80
2022/07/26 09:32:25;;;;;;;6.33;1.80;;;;;;;23.57;46.44;101784.50;5142933;28;20429;-81
2022/07/26 09:35:14;;;;;;;4.47;1.45;;;;;;;23.77;46.13;101793.38;5145328;28;20429;-81
2022/07/26 09:37:47;;;;;;;10.65;1.63;;;;;;;23.88;46.00;101803.50;5151196;28;20785;-81
2022/07/26 09:40:20;;;;;;;7.10;1.55;;;;;;;23.98;45.72;101818.41;5152172;28;20500;-82
2022/07/26 09:42:57;;;;;;;7.70;1.33;;;;;;;23.69;45.63;101804.41;5133387;28;20914;-81
2022/07/26 09:45:32;;;;;;;8.35;3.08;;;;;;;23.69;45.80;101825.97;5152775;28;20424;-80
2022/07/26 09:48:10;;;;;;;8.52;2.65;;;;;;;23.62;45.73;101835.94;5148981;28;20418;-79
2022/07/26 09:50:48;;;;;;;7.10;2.65;;;;;;;23.55;45.89;101824.34;5152446;28;20898;-80
2022/07/26 09:53:21;;;;;;;5.95;2.45;;;;;;;23.48;45.89;101825.19;5150897;28;20513;-80
2022/07/26 09:55:57;;;;;;;8.15;1.95;;;;;;;23.42;45.87;101825.22;5147306;28;20480;-80
2022/07/26 09:58:30;;;;;;;7.63;2.92;;;;;;;23.38;46.15;101824.81;5152066;28;20630;-81
2022/07/26 10:01:02;;;;;;;5.07;1.65;;;;;;;23.48;45.89;101841.38;5159524;28;21107;-80
2022/07/26 10:03:36;;;;;;;5.78;2.53;;;;;;;23.53;45.66;101835.31;5152184;28;20462;-80
2022/07/26 10:06:09;;;;;;;10.07;3.13;;;;;;;23.61;45.58;101839.66;5166297;28;20433;-79
2022/07/26 10:08:41;;;;;;;24.15;10.23;;;;;;;23.58;45.53;101823.91;5165972;28;20508;-78
2022/07/26 10:11:14;;;;;;;16.50;5.57;;;;;;;23.67;45.30;101841.53;5153009;28;20414;-78
2022/07/26 10:13:47;;;;;;;11.10;2.70;;;;;;;23.74;45.34;101839.66;5153359;28;20427;-79
2022/07/26 10:16:30;;;;;;;10.40;3.67;;;;;;;23.73;45.17;101838.00;5147541;28;20515;-79
2022/07/26 10:19:04;;;;;;;16.90;2.72;;;;;;;23.75;45.10;101844.00;5135126;28;20416;-79
2022/07/26 10:21:36;;;;;;;13.65;2.40;;;;;;;23.70;45.19;101846.53;5128961;28;20430;-77
2022/07/26 10:24:25;;;;;;;9.70;2.40;;;;;;;23.65;44.89;101841.72;5131421;28;20416;-79
2022/07/26 10:26:58;;;;;;;15.57;4.72;;;;;;;23.68;44.82;101841.28;5131790;28;20766;-79
2022/07/26 10:29:30;;;;;;;10.55;2.40;;;;;;;23.61;44.81;101839.66;5132997;28;20434;-80
2022/07/26 10:32:20;;;;;;;9.07;2.50;;;;;;;23.54;44.62;101823.53;5143642;28;20513;-78
2022/07/26 10:34:53;;;;;;;10.48;3.60;;;;;;;23.66;44.45;101847.94;5135467;28;20416;-78
2022/07/26 10:37:28;;;;;;;27.25;12.93;;;;;;;23.75;44.32;101851.25;5132121;28;20506;-79
2022/07/26 10:40:24;;;;;;;10.40;2.15;;;;;;;23.79;44.08;101855.22;5132118;28;20430;-78
2022/07/26 10:43:08;;;;;;;7.00;1.98;;;;;;;23.76;43.90;101864.56;5131840;28;20412;-79
2022/07/26 10:45:41;;;;;;;9.95;2.92;;;;;;;23.88;43.65;101856.63;5128773;28;20483;-77
2022/07/26 10:48:17;;;;;;;13.60;2.57;;;;;;;23.96;43.59;101852.84;5131430;28;20514;-80
2022/07/26 10:50:53;;;;;;;8.40;2.25;;;;;;;23.92;43.44;101858.69;5132310;28;20926;-80
2022/07/26 10:53:27;;;;;;;9.90;2.40;;;;;;;23.93;43.21;101852.22;5131108;28;20416;-74
2022/07/26 10:56:00;;;;;;;10.70;4.10;;;;;;;24.04;42.99;101858.03;5147847;28;20516;-77
2022/07/26 10:58:43;;;;;;;7.18;1.98;;;;;;;24.24;42.70;101855.22;5144929;28;20420;-76
2022/07/26 11:01:16;;;;;;;16.27;2.88;;;;;;;24.39;42.40;101853.06;5143950;28;20438;-77
2022/07/26 11:03:48;;;;;;;24.55;7.38;;;;;;;24.62;42.19;101852.50;5150660;28;20494;-78
2022/07/26 11:06:22;;;;;;;17.35;6.28;;;;;;;24.83;41.94;101854.84;5149977;28;20436;-78
2022/07/26 11:08:54;;;;;;;9.95;1.83;;;;;;;24.88;41.85;101866.88;5136527;28;20428;-77
2022/07/26 11:11:32;;;;;;;20.08;7.75;;;;;;;24.98;41.68;101861.81;5131057;28;20901;-80
2022/07/26 11:14:07;;;;;;;13.48;3.13;;;;;;;25.05;41.56;101867.97;5136924;28;20409;-81
2022/07/26 11:16:41;;;;;;;6.93;2.50;;;;;;;25.12;41.41;101868.75;5127095;28;20500;-78
2022/07/26 11:19:16;;;;;;;11.65;2.33;;;;;;;25.11;41.31;101866.25;5130762;28;20420;-76
2022/07/26 11:21:55;;;;;;;12.45;4.15;;;;;;;25.14;41.24;101874.78;5131484;28;20524;-76
2022/07/26 11:24:28;;;;;;;7.22;2.60;;;;;;;25.13;41.10;101875.84;5130453;28;20434;-77
2022/07/26 11:27:04;;;;;;;15.93;3.63;;;;;;;25.12;40.95;101884.16;5132424;28;20436;-77
2022/07/26 11:29:37;;;;;;;8.75;2.35;;;;;;;25.08;40.84;101883.75;5124189;28;20441;-77
2022/07/26 11:32:18;;;;;;;10.32;3.92;;;;;;;25.05;41.09;101885.03;5129579;28;20431;-78
2022/07/26 11:34:59;;;;;;;9.60;3.22;;;;;;;25.04;40.93;101888.78;5129907;28;20490;-79
2022/07/26 11:37:33;;;;;;;10.18;2.65;;;;;;;25.12;40.66;101890.38;5124260;28;20424;-78
2022/07/26 11:40:07;;;;;;;7.55;2.40;;;;;;;25.05;40.47;101867.97;5126927;28;20431;-76
2022/07/26 11:42:39;;;;;;;5.63;1.80;;;;;;;25.26;40.27;101885.69;5125829;28;20977;-79
2022/07/26 11:45:11;;;;;;;6.30;1.85;;;;;;;25.38;40.07;101893.91;5125516;28;20432;-78
2022/07/26 11:47:44;;;;;;;12.02;3.67;;;;;;;25.34;39.93;101890.84;5125961;28;20436;-78
2022/07/26 11:50:18;;;;;;;9.73;3.83;;;;;;;25.30;39.95;101892.31;5126214;28;20416;-77
2022/07/26 11:52:53;;;;;;;5.88;2.08;;;;;;;25.27;40.07;101888.19;5117180;28;20504;-76
2022/07/26 11:55:30;;;;;;;5.25;2.05;;;;;;;25.23;39.94;101886.97;5142177;28;20434;-75
2022/07/26 11:58:05;;;;;;;5.63;1.95;;;;;;;25.22;40.02;101898.84;5129521;28;20431;-77